Time,TemperatureF,DewpointF,PressureIn,WindDirection,WindDirectionDegrees,WindSpeedMPH,WindSpeedGustMPH,Humidity,HourlyPrecipIn,Conditions,Clouds,dailyrainin,SolarRadiationWatts/m^2,SoftwareType,DateUTC
2013-01-22 00:33:00,-2.0,-5.0,-100.00,ENE,76,2.0,7.0,87,-99.99,,,0.00,0.000000,,2013-01-22 09:33:00,
2013-01-22 00:43:00,-2.0,-5.0,-100.00,ENE,76,2.0,7.0,87,-99.99,,,0.00,0.000000,,2013-01-22 09:43:00,
2013-01-22 00:52:00,-2.0,-5.0,-100.00,ENE,76,2.0,7.0,87,-99.99,,,0.00,0.000000,,2013-01-22 09:52:00,
2013-01-22 01:02:00,-2.0,-5.0,-100.00,ENE,76,2.0,7.0,87,-99.99,,,0.00,0.000000,,2013-01-22 10:02:00,
2013-01-22 01:11:00,-2.0,-5.0,-100.00,ENE,76,2.0,7.0,87,-99.99,,,0.00,0.000000,,2013-01-22 10:11:00,
2013-01-22 01:42:00,-8.0,-12.0,-100.00,SSE,147,0.0,3.0,83,0.00,,,0.00,0.000000,,2013-01-22 10:42:00,
2013-01-22 01:52:00,-8.0,-12.0,-100.00,SSE,147,0.0,3.0,83,0.00,,,0.00,0.000000,,2013-01-22 10:52:00,
2013-01-22 02:33:00,-10.0,-13.0,-100.00,East,87,0.0,2.0,84,0.00,,,0.00,0.000000,,2013-01-22 11:33:00,
2013-01-22 03:43:00,-11.0,-15.0,-100.00,ENE,73,1.0,4.0,83,-99.99,,,-99.99,0.000000,,2013-01-22 12:43:00,
2013-01-22 03:53:00,-11.0,-15.0,-100.00,ENE,73,1.0,4.0,83,-99.99,,,-99.99,0.000000,,2013-01-22 12:53:00,
2013-01-22 04:34:00,3.0,0.0,-100.00,ENE,69,4.0,8.0,86,-99.99,,,0.00,0.000000,,2013-01-22 13:34:00,
2013-01-22 04:43:00,3.0,0.0,-100.00,ENE,69,4.0,8.0,86,-99.99,,,0.00,0.000000,,2013-01-22 13:43:00,
2013-01-22 04:53:00,3.0,0.0,-100.00,ENE,69,4.0,8.0,86,-99.99,,,0.00,0.000000,,2013-01-22 13:53:00,
2013-01-22 05:02:00,3.0,0.0,-100.00,ENE,69,4.0,8.0,86,-99.99,,,0.00,0.000000,,2013-01-22 14:02:00,
2013-01-22 05:12:00,3.0,0.0,-100.00,ENE,69,4.0,8.0,86,-99.99,,,0.00,0.000000,,2013-01-22 14:12:00,
2013-01-22 05:44:00,4.0,0.0,-100.00,ENE,60,5.0,9.0,82,0.00,,,0.00,0.000000,,2013-01-22 14:44:00,
2013-01-22 05:53:00,4.0,0.0,-100.00,ENE,60,5.0,9.0,82,0.00,,,0.00,0.000000,,2013-01-22 14:53:00,
2013-01-22 06:03:00,4.0,0.0,-100.00,ENE,60,5.0,9.0,82,0.00,,,0.00,0.000000,,2013-01-22 15:03:00,
2013-01-22 06:12:00,4.0,0.0,-100.00,ENE,60,5.0,9.0,82,0.00,,,0.00,0.000000,,2013-01-22 15:12:00,
2013-01-22 06:43:00,4.0,-1.0,-100.00,ENE,60,5.0,10.0,79,0.00,,,0.00,0.000000,,2013-01-22 15:43:00,
2013-01-22 06:53:00,4.0,-1.0,-100.00,ENE,60,5.0,10.0,79,0.00,,,0.00,0.000000,,2013-01-22 15:53:00,
2013-01-22 07:03:00,4.0,-1.0,-100.00,ENE,60,5.0,10.0,79,0.00,,,0.00,0.000000,,2013-01-22 16:03:00,
2013-01-22 07:12:00,4.0,-1.0,-100.00,ENE,60,5.0,10.0,79,0.00,,,0.00,0.000000,,2013-01-22 16:12:00,
2013-01-22 07:43:00,4.0,-1.0,-100.00,ENE,68,4.0,9.0,79,0.00,,,0.00,0.000000,,2013-01-22 16:43:00,
2013-01-22 07:54:00,4.0,-1.0,-100.00,ENE,68,4.0,9.0,79,0.00,,,0.00,0.000000,,2013-01-22 16:54:00,
2013-01-22 08:03:00,4.0,-1.0,-100.00,ENE,68,4.0,9.0,79,0.00,,,0.00,0.000000,,2013-01-22 17:03:00,
2013-01-22 08:12:00,4.0,-1.0,-100.00,ENE,68,4.0,9.0,79,0.00,,,0.00,0.000000,,2013-01-22 17:12:00,
2013-01-22 08:44:00,3.0,-2.0,-100.00,NE,54,2.0,8.0,80,0.00,,,-99.99,0.000000,,2013-01-22 17:44:00,
2013-01-22 08:53:00,3.0,-2.0,-100.00,NE,54,2.0,8.0,80,0.00,,,-99.99,0.000000,,2013-01-22 17:53:00,
2013-01-22 09:03:00,3.0,-2.0,-100.00,NE,54,2.0,8.0,80,0.00,,,-99.99,0.000000,,2013-01-22 18:03:00,
2013-01-22 09:12:00,3.0,-2.0,-100.00,NE,54,2.0,8.0,80,0.00,,,-99.99,0.000000,,2013-01-22 18:12:00,
2013-01-22 09:34:00,4.0,-1.0,-100.00,NE,49,3.0,8.0,80,0.00,,,0.00,0.000000,,2013-01-22 18:34:00,
2013-01-22 09:43:00,4.0,-1.0,-100.00,NE,49,3.0,8.0,80,0.00,,,0.00,0.000000,,2013-01-22 18:43:00,
2013-01-22 09:53:00,4.0,-1.0,-100.00,NE,49,3.0,8.0,80,0.00,,,0.00,0.000000,,2013-01-22 18:53:00,
2013-01-22 10:03:00,4.0,-1.0,-100.00,NE,49,3.0,8.0,80,0.00,,,0.00,0.000000,,2013-01-22 19:03:00,
2013-01-22 10:12:00,4.0,-1.0,-100.00,NE,49,3.0,8.0,80,0.00,,,0.00,0.000000,,2013-01-22 19:12:00,
2013-01-22 10:43:00,5.0,-1.0,-100.00,ENE,60,5.0,10.0,77,0.00,,,0.00,0.000000,,2013-01-22 19:43:00,
2013-01-22 10:54:00,5.0,-1.0,-100.00,ENE,60,5.0,10.0,77,0.00,,,0.00,0.000000,,2013-01-22 19:54:00,
2013-01-22 11:03:00,5.0,-1.0,-100.00,ENE,60,5.0,10.0,77,0.00,,,0.00,0.000000,,2013-01-22 20:03:00,
2013-01-22 11:12:00,5.0,-1.0,-100.00,ENE,60,5.0,10.0,77,0.00,,,0.00,0.000000,,2013-01-22 20:12:00,
2013-01-22 11:43:00,5.0,-1.0,-100.00,NE,55,4.0,8.0,76,0.00,,,-99.99,4.000000,,2013-01-22 20:43:00,
2013-01-22 11:53:00,5.0,-1.0,-100.00,NE,55,4.0,8.0,76,0.00,,,-99.99,4.000000,,2013-01-22 20:53:00,
2013-01-22 12:03:00,5.0,-1.0,-100.00,NE,55,4.0,8.0,76,0.00,,,-99.99,4.000000,,2013-01-22 21:03:00,
2013-01-22 12:12:00,5.0,-1.0,-100.00,NE,55,4.0,8.0,76,0.00,,,-99.99,4.000000,,2013-01-22 21:12:00,
2013-01-22 12:43:00,6.0,0.0,-100.00,ENE,57,6.0,11.0,76,0.00,,,-99.99,5.000000,,2013-01-22 21:43:00,
2013-01-22 12:53:00,6.0,0.0,-100.00,ENE,57,6.0,11.0,76,0.00,,,-99.99,5.000000,,2013-01-22 21:53:00,
2013-01-22 13:02:00,6.0,0.0,-100.00,ENE,57,6.0,11.0,76,0.00,,,-99.99,5.000000,,2013-01-22 22:02:00,
2013-01-22 13:12:00,6.0,0.0,-100.00,ENE,57,6.0,11.0,76,0.00,,,-99.99,5.000000,,2013-01-22 22:12:00,
2013-01-22 13:43:00,7.0,0.0,-100.00,NE,54,4.0,11.0,74,0.00,,,0.00,5.000000,,2013-01-22 22:43:00,
2013-01-22 13:53:00,7.0,0.0,-100.00,NE,54,4.0,11.0,74,0.00,,,0.00,5.000000,,2013-01-22 22:53:00,
2013-01-22 14:02:00,7.0,0.0,-100.00,NE,54,4.0,11.0,74,0.00,,,0.00,5.000000,,2013-01-22 23:02:00,
2013-01-22 14:12:00,7.0,0.0,-100.00,NE,54,4.0,11.0,74,0.00,,,0.00,5.000000,,2013-01-22 23:12:00,
2013-01-22 14:43:00,8.0,1.0,-100.00,NE,44,3.0,7.0,74,0.00,,,0.00,5.000000,,2013-01-22 23:43:00,
2013-01-22 14:53:00,8.0,1.0,-100.00,NE,44,3.0,7.0,74,0.00,,,0.00,5.000000,,2013-01-22 23:53:00,
2013-01-22 15:02:00,8.0,1.0,-100.00,NE,44,3.0,7.0,74,0.00,,,0.00,5.000000,,2013-01-23 00:02:00,
2013-01-22 15:12:00,8.0,1.0,-100.00,NE,44,3.0,7.0,74,0.00,,,0.00,5.000000,,2013-01-23 00:12:00,
2013-01-22 15:43:00,7.0,1.0,-100.00,NE,51,1.0,7.0,75,0.00,,,0.00,5.000000,,2013-01-23 00:43:00,
2013-01-22 15:52:00,7.0,1.0,-100.00,NE,51,1.0,7.0,75,0.00,,,0.00,5.000000,,2013-01-23 00:52:00,
2013-01-22 16:02:00,7.0,1.0,-100.00,NE,51,1.0,7.0,75,0.00,,,0.00,5.000000,,2013-01-23 01:02:00,
2013-01-22 16:12:00,7.0,1.0,-100.00,NE,51,1.0,7.0,75,0.00,,,0.00,5.000000,,2013-01-23 01:12:00,
2013-01-22 16:43:00,6.0,1.0,-100.00,ENE,61,2.0,6.0,81,0.00,,,0.00,1.000000,,2013-01-23 01:43:00,
2013-01-22 16:53:00,6.0,1.0,-100.00,ENE,61,2.0,6.0,81,0.00,,,0.00,1.000000,,2013-01-23 01:53:00,
2013-01-22 17:03:00,6.0,1.0,-100.00,ENE,61,2.0,6.0,81,0.00,,,0.00,1.000000,,2013-01-23 02:03:00,
2013-01-22 17:12:00,6.0,1.0,-100.00,ENE,61,2.0,6.0,81,0.00,,,0.00,1.000000,,2013-01-23 02:12:00,
2013-01-22 17:43:00,6.0,1.0,-100.00,ENE,71,2.0,8.0,79,0.00,,,0.00,0.000000,,2013-01-23 02:43:00,
2013-01-22 17:53:00,6.0,1.0,-100.00,ENE,71,2.0,8.0,79,0.00,,,0.00,0.000000,,2013-01-23 02:53:00,
2013-01-22 18:03:00,6.0,1.0,-100.00,ENE,71,2.0,8.0,79,0.00,,,0.00,0.000000,,2013-01-23 03:03:00,
2013-01-22 18:12:00,6.0,1.0,-100.00,ENE,71,2.0,8.0,79,0.00,,,0.00,0.000000,,2013-01-23 03:12:00,
2013-01-22 18:33:00,2.0,-1.0,-100.00,ENE,68,2.0,6.0,88,0.00,,,-99.99,0.000000,,2013-01-23 03:33:00,
2013-01-22 18:43:00,2.0,-1.0,-100.00,ENE,68,2.0,6.0,88,0.00,,,-99.99,0.000000,,2013-01-23 03:43:00,
2013-01-22 18:53:00,2.0,-1.0,-100.00,ENE,68,2.0,6.0,88,0.00,,,-99.99,0.000000,,2013-01-23 03:53:00,
2013-01-22 19:03:00,2.0,-1.0,-100.00,ENE,68,2.0,6.0,88,0.00,,,-99.99,0.000000,,2013-01-23 04:03:00,
2013-01-22 19:12:00,2.0,-1.0,-100.00,ENE,68,2.0,6.0,88,0.00,,,-99.99,0.000000,,2013-01-23 04:12:00,
2013-01-22 19:33:00,-3.0,-7.0,-100.00,SE,145,0.0,6.0,84,0.00,,,0.00,0.000000,,2013-01-23 04:33:00,
2013-01-22 19:43:00,-3.0,-7.0,-100.00,SE,145,0.0,6.0,84,0.00,,,0.00,0.000000,,2013-01-23 04:43:00,
2013-01-22 19:53:00,-3.0,-7.0,-100.00,SE,145,0.0,6.0,84,0.00,,,0.00,0.000000,,2013-01-23 04:53:00,
2013-01-22 20:03:00,-3.0,-7.0,-100.00,SE,145,0.0,6.0,84,0.00,,,0.00,0.000000,,2013-01-23 05:03:00,
2013-01-22 20:12:00,-3.0,-7.0,-100.00,SE,145,0.0,6.0,84,0.00,,,0.00,0.000000,,2013-01-23 05:12:00,
2013-01-22 20:33:00,-8.0,-11.0,-100.00,NW,311,0.0,1.0,85,0.00,,,0.00,0.000000,,2013-01-23 05:33:00,
2013-01-22 21:43:00,-7.0,-10.0,-100.00,ENE,60,1.0,4.0,85,-99.99,,,0.00,0.000000,,2013-01-23 06:43:00,
2013-01-22 21:53:00,-7.0,-10.0,-100.00,ENE,60,1.0,4.0,85,-99.99,,,0.00,0.000000,,2013-01-23 06:53:00,
2013-01-22 22:02:00,-7.0,-10.0,-100.00,ENE,60,1.0,4.0,85,-99.99,,,0.00,0.000000,,2013-01-23 07:02:00,
2013-01-22 22:12:00,-7.0,-10.0,-100.00,ENE,60,1.0,4.0,85,-99.99,,,0.00,0.000000,,2013-01-23 07:12:00,
2013-01-22 22:33:00,-6.0,-9.0,-100.00,East,81,1.0,4.0,86,-99.99,,,0.00,0.000000,,2013-01-23 07:33:00,
2013-01-22 22:43:00,-6.0,-9.0,-100.00,East,81,1.0,4.0,86,-99.99,,,0.00,0.000000,,2013-01-23 07:43:00,
2013-01-22 22:53:00,-6.0,-9.0,-100.00,East,81,1.0,4.0,86,-99.99,,,0.00,0.000000,,2013-01-23 07:53:00,
2013-01-22 23:02:00,-6.0,-9.0,-100.00,East,81,1.0,4.0,86,-99.99,,,0.00,0.000000,,2013-01-23 08:02:00,
2013-01-22 23:12:00,-6.0,-9.0,-100.00,East,81,1.0,4.0,86,-99.99,,,0.00,0.000000,,2013-01-23 08:12:00,
2013-01-22 23:43:00,3.0,1.0,-100.00,ENE,66,4.0,9.0,90,-99.99,,,0.00,0.000000,,2013-01-23 08:43:00,
2013-01-22 23:53:00,3.0,1.0,-100.00,ENE,66,4.0,9.0,90,-99.99,,,0.00,0.000000,,2013-01-23 08:53:00,